sensor_id;sensor_type;location;lat;lon;timestamp;temperature;humidity
9179;DHT22;4624;48.126;11.546;2023-01-16T00:01:31;3.30;93.00
9179;DHT22;4624;48.126;11.546;2023-01-16T00:03:59;3.40;93.00
9179;DHT22;4624;48.126;11.546;2023-01-16T00:06:26;3.40;93.00
9179;DHT22;4624;48.126;11.546;2023-01-16T00:08:52;3.40;93.00
9179;DHT22;4624;48.126;11.546;2023-01-16T00:11:19;3.40;93.00
9179;DHT22;4624;48.126;11.546;2023-01-16T00:13:46;3.30;93.00
9179;DHT22;4624;48.126;11.546;2023-01-16T00:16:12;3.30;93.10
9179;DHT22;4624;48.126;11.546;2023-01-16T00:18:39;3.30;93.10
9179;DHT22;4624;48.126;11.546;2023-01-16T00:21:08;3.20;93.10
9179;DHT22;4624;48.126;11.546;2023-01-16T00:23:36;3.20;93.20
9179;DHT22;4624;48.126;11.546;2023-01-16T00:26:05;3.20;93.30
9179;DHT22;4624;48.126;11.546;2023-01-16T00:28:31;3.20;93.30
9179;DHT22;4624;48.126;11.546;2023-01-16T00:30:58;3.20;93.40
9179;DHT22;4624;48.126;11.546;2023-01-16T00:33:25;3.20;93.30
9179;DHT22;4624;48.126;11.546;2023-01-16T00:35:52;3.20;93.30
9179;DHT22;4624;48.126;11.546;2023-01-16T00:38:20;3.20;93.40
9179;DHT22;4624;48.126;11.546;2023-01-16T00:40:47;3.10;93.80
9179;DHT22;4624;48.126;11.546;2023-01-16T00:43:13;3.00;93.40
9179;DHT22;4624;48.126;11.546;2023-01-16T00:45:40;3.00;93.40
9179;DHT22;4624;48.126;11.546;2023-01-16T00:48:08;2.80;93.30
9179;DHT22;4624;48.126;11.546;2023-01-16T00:50:35;2.90;93.40
9179;DHT22;4624;48.126;11.546;2023-01-16T00:53:02;2.90;93.50
9179;DHT22;4624;48.126;11.546;2023-01-16T00:55:32;2.90;93.60
9179;DHT22;4624;48.126;11.546;2023-01-16T00:57:59;2.90;93.70
9179;DHT22;4624;48.126;11.546;2023-01-16T01:00:26;2.90;93.70
9179;DHT22;4624;48.126;11.546;2023-01-16T01:02:52;3.00;93.70
9179;DHT22;4624;48.126;11.546;2023-01-16T01:05:19;3.00;93.80
9179;DHT22;4624;48.126;11.546;2023-01-16T01:07:46;3.00;93.80
9179;DHT22;4624;48.126;11.546;2023-01-16T01:10:13;3.00;93.90
9179;DHT22;4624;48.126;11.546;2023-01-16T01:12:41;3.00;93.90
9179;DHT22;4624;48.126;11.546;2023-01-16T01:15:08;3.00;93.90
9179;DHT22;4624;48.126;11.546;2023-01-16T01:17:35;3.00;94.00
9179;DHT22;4624;48.126;11.546;2023-01-16T01:20:03;3.00;94.00
9179;DHT22;4624;48.126;11.546;2023-01-16T01:22:30;3.00;94.00
9179;DHT22;4624;48.126;11.546;2023-01-16T01:24:57;3.00;94.00
9179;DHT22;4624;48.126;11.546;2023-01-16T01:27:23;3.00;94.00
9179;DHT22;4624;48.126;11.546;2023-01-16T01:29:51;3.00;94.10
9179;DHT22;4624;48.126;11.546;2023-01-16T01:32:18;3.00;94.10
9179;DHT22;4624;48.126;11.546;2023-01-16T01:34:45;2.90;94.10
9179;DHT22;4624;48.126;11.546;2023-01-16T01:37:12;2.90;94.10
9179;DHT22;4624;48.126;11.546;2023-01-16T01:39:39;2.90;94.10
9179;DHT22;4624;48.126;11.546;2023-01-16T01:42:08;2.90;94.20
9179;DHT22;4624;48.126;11.546;2023-01-16T01:44:56;2.80;94.10
9179;DHT22;4624;48.126;11.546;2023-01-16T01:47:26;2.80;94.10
9179;DHT22;4624;48.126;11.546;2023-01-16T01:49:55;2.80;94.30
9179;DHT22;4624;48.126;11.546;2023-01-16T01:52:23;2.80;94.10
9179;DHT22;4624;48.126;11.546;2023-01-16T01:54:53;2.70;94.10
9179;DHT22;4624;48.126;11.546;2023-01-16T01:57:24;2.70;94.10
9179;DHT22;4624;48.126;11.546;2023-01-16T01:59:57;2.70;94.10
9179;DHT22;4624;48.126;11.546;2023-01-16T02:02:28;2.80;94.20
9179;DHT22;4624;48.126;11.546;2023-01-16T02:04:57;2.80;94.10
9179;DHT22;4624;48.126;11.546;2023-01-16T02:07:26;2.70;94.30
9179;DHT22;4624;48.126;11.546;2023-01-16T02:09:59;2.80;94.00
9179;DHT22;4624;48.126;11.546;2023-01-16T02:12:28;2.80;94.00
9179;DHT22;4624;48.126;11.546;2023-01-16T02:14:57;2.70;93.90
9179;DHT22;4624;48.126;11.546;2023-01-16T02:17:24;2.80;93.80
9179;DHT22;4624;48.126;11.546;2023-01-16T02:20:16;2.70;93.60
9179;DHT22;4624;48.126;11.546;2023-01-16T02:23:31;2.80;93.60
9179;DHT22;4624;48.126;11.546;2023-01-16T02:26:49;2.80;93.60
9179;DHT22;4624;48.126;11.546;2023-01-16T02:32:28;2.70;93.40
9179;DHT22;4624;48.126;11.546;2023-01-16T02:35:18;2.70;93.30
9179;DHT22;4624;48.126;11.546;2023-01-16T02:37:50;2.70;93.30
9179;DHT22;4624;48.126;11.546;2023-01-16T02:40:29;2.70;93.30
9179;DHT22;4624;48.126;11.546;2023-01-16T02:43:03;2.60;93.30
9179;DHT22;4624;48.126;11.546;2023-01-16T02:45:39;2.70;93.30
9179;DHT22;4624;48.126;11.546;2023-01-16T02:48:12;2.70;93.30
9179;DHT22;4624;48.126;11.546;2023-01-16T02:50:46;2.70;93.30
9179;DHT22;4624;48.126;11.546;2023-01-16T02:53:21;2.70;93.30
9179;DHT22;4624;48.126;11.546;2023-01-16T02:55:52;2.70;93.30
9179;DHT22;4624;48.126;11.546;2023-01-16T02:58:20;2.70;93.30
9179;DHT22;4624;48.126;11.546;2023-01-16T03:00:51;2.80;93.40
9179;DHT22;4624;48.126;11.546;2023-01-16T03:03:39;2.80;93.50
9179;DHT22;4624;48.126;11.546;2023-01-16T03:09:03;2.90;93.60
9179;DHT22;4624;48.126;11.546;2023-01-16T03:11:38;2.90;93.70
9179;DHT22;4624;48.126;11.546;2023-01-16T03:14:17;2.90;93.70
9179;DHT22;4624;48.126;11.546;2023-01-16T03:16:58;2.90;93.80
9179;DHT22;4624;48.126;11.546;2023-01-16T03:19:39;2.90;93.90
9179;DHT22;4624;48.126;11.546;2023-01-16T03:22:12;2.90;93.90
9179;DHT22;4624;48.126;11.546;2023-01-16T03:24:55;2.90;94.00
9179;DHT22;4624;48.126;11.546;2023-01-16T03:27:31;2.90;94.10
9179;DHT22;4624;48.126;11.546;2023-01-16T03:30:07;2.70;94.00
9179;DHT22;4624;48.126;11.546;2023-01-16T03:32:39;2.70;94.10
9179;DHT22;4624;48.126;11.546;2023-01-16T03:35:13;2.70;94.20
9179;DHT22;4624;48.126;11.546;2023-01-16T03:37:45;2.70;94.20
9179;DHT22;4624;48.126;11.546;2023-01-16T03:40:18;2.60;94.20
9179;DHT22;4624;48.126;11.546;2023-01-16T03:42:51;2.60;94.30
9179;DHT22;4624;48.126;11.546;2023-01-16T03:45:22;2.60;94.40
9179;DHT22;4624;48.126;11.546;2023-01-16T03:47:54;2.60;94.40
9179;DHT22;4624;48.126;11.546;2023-01-16T03:50:27;2.50;94.40
9179;DHT22;4624;48.126;11.546;2023-01-16T03:52:57;2.50;94.50
9179;DHT22;4624;48.126;11.546;2023-01-16T03:55:29;2.50;94.60
9179;DHT22;4624;48.126;11.546;2023-01-16T03:58:01;2.50;94.60
9179;DHT22;4624;48.126;11.546;2023-01-16T04:00:36;2.60;94.60
9179;DHT22;4624;48.126;11.546;2023-01-16T04:03:08;2.50;94.60
9179;DHT22;4624;48.126;11.546;2023-01-16T04:05:42;2.60;94.70
9179;DHT22;4624;48.126;11.546;2023-01-16T04:08:14;2.60;94.80
9179;DHT22;4624;48.126;11.546;2023-01-16T04:10:43;2.60;94.80
9179;DHT22;4624;48.126;11.546;2023-01-16T04:13:13;2.60;94.80
9179;DHT22;4624;48.126;11.546;2023-01-16T04:15:44;2.50;94.80
9179;DHT22;4624;48.126;11.546;2023-01-16T04:18:11;2.40;94.70
9179;DHT22;4624;48.126;11.546;2023-01-16T04:20:42;2.30;94.70
9179;DHT22;4624;48.126;11.546;2023-01-16T04:23:11;2.20;94.80
9179;DHT22;4624;48.126;11.546;2023-01-16T04:25:38;2.20;94.80
9179;DHT22;4624;48.126;11.546;2023-01-16T04:28:04;2.20;94.90
9179;DHT22;4624;48.126;11.546;2023-01-16T04:30:31;2.20;94.90
9179;DHT22;4624;48.126;11.546;2023-01-16T04:33:00;2.20;95.00
9179;DHT22;4624;48.126;11.546;2023-01-16T04:35:27;2.20;95.00
9179;DHT22;4624;48.126;11.546;2023-01-16T04:37:55;2.20;95.10
9179;DHT22;4624;48.126;11.546;2023-01-16T04:40:22;2.20;95.10
9179;DHT22;4624;48.126;11.546;2023-01-16T04:42:49;2.20;95.10
9179;DHT22;4624;48.126;11.546;2023-01-16T04:45:16;2.10;95.10
9179;DHT22;4624;48.126;11.546;2023-01-16T04:47:45;2.10;95.20
9179;DHT22;4624;48.126;11.546;2023-01-16T04:50:12;2.10;95.20
9179;DHT22;4624;48.126;11.546;2023-01-16T04:52:40;2.10;95.30
9179;DHT22;4624;48.126;11.546;2023-01-16T04:55:09;2.10;95.30
9179;DHT22;4624;48.126;11.546;2023-01-16T04:57:36;2.00;95.30
9179;DHT22;4624;48.126;11.546;2023-01-16T05:00:04;1.90;95.30
9179;DHT22;4624;48.126;11.546;2023-01-16T05:02:31;1.80;95.70
9179;DHT22;4624;48.126;11.546;2023-01-16T05:04:58;1.80;95.40
9179;DHT22;4624;48.126;11.546;2023-01-16T05:07:25;1.80;95.40
9179;DHT22;4624;48.126;11.546;2023-01-16T05:09:53;1.70;95.50
9179;DHT22;4624;48.126;11.546;2023-01-16T05:12:21;1.70;95.50
9179;DHT22;4624;48.126;11.546;2023-01-16T05:14:48;1.80;95.60
9179;DHT22;4624;48.126;11.546;2023-01-16T05:17:15;1.70;95.60
9179;DHT22;4624;48.126;11.546;2023-01-16T05:19:41;1.70;95.60
9179;DHT22;4624;48.126;11.546;2023-01-16T05:22:08;1.50;95.60
9179;DHT22;4624;48.126;11.546;2023-01-16T05:24:35;1.50;95.70
9179;DHT22;4624;48.126;11.546;2023-01-16T05:27:01;1.50;95.80
9179;DHT22;4624;48.126;11.546;2023-01-16T05:29:30;1.40;95.90
9179;DHT22;4624;48.126;11.546;2023-01-16T05:31:56;1.40;95.90
9179;DHT22;4624;48.126;11.546;2023-01-16T05:34:23;1.40;96.00
9179;DHT22;4624;48.126;11.546;2023-01-16T05:36:50;1.50;96.20
9179;DHT22;4624;48.126;11.546;2023-01-16T05:39:16;1.50;96.30
9179;DHT22;4624;48.126;11.546;2023-01-16T05:41:43;1.60;96.50
9179;DHT22;4624;48.126;11.546;2023-01-16T05:44:10;1.70;96.60
9179;DHT22;4624;48.126;11.546;2023-01-16T05:46:38;1.70;96.60
9179;DHT22;4624;48.126;11.546;2023-01-16T05:49:05;1.60;96.60
9179;DHT22;4624;48.126;11.546;2023-01-16T05:51:31;1.60;96.60
9179;DHT22;4624;48.126;11.546;2023-01-16T05:53:58;1.60;96.60
9179;DHT22;4624;48.126;11.546;2023-01-16T05:56:25;1.50;96.60
9179;DHT22;4624;48.126;11.546;2023-01-16T05:58:52;1.50;97.00
9179;DHT22;4624;48.126;11.546;2023-01-16T06:01:19;1.50;96.70
9179;DHT22;4624;48.126;11.546;2023-01-16T06:03:47;1.50;96.60
9179;DHT22;4624;48.126;11.546;2023-01-16T06:06:14;1.40;96.60
9179;DHT22;4624;48.126;11.546;2023-01-16T06:08:41;1.40;96.50
9179;DHT22;4624;48.126;11.546;2023-01-16T06:11:07;1.40;96.60
9179;DHT22;4624;48.126;11.546;2023-01-16T06:13:34;1.40;96.60
9179;DHT22;4624;48.126;11.546;2023-01-16T06:16:01;1.40;96.60
9179;DHT22;4624;48.126;11.546;2023-01-16T06:18:27;1.30;96.60
9179;DHT22;4624;48.126;11.546;2023-01-16T06:20:56;1.20;96.60
9179;DHT22;4624;48.126;11.546;2023-01-16T06:23:22;1.10;96.70
9179;DHT22;4624;48.126;11.546;2023-01-16T06:25:49;1.00;96.70
9179;DHT22;4624;48.126;11.546;2023-01-16T06:28:16;0.90;96.70
9179;DHT22;4624;48.126;11.546;2023-01-16T06:30:43;0.90;96.70
9179;DHT22;4624;48.126;11.546;2023-01-16T06:33:10;0.90;96.80
9179;DHT22;4624;48.126;11.546;2023-01-16T06:35:36;0.90;96.90
9179;DHT22;4624;48.126;11.546;2023-01-16T06:38:04;0.80;96.90
9179;DHT22;4624;48.126;11.546;2023-01-16T06:40:31;0.90;97.00
9179;DHT22;4624;48.126;11.546;2023-01-16T06:42:58;0.90;97.10
9179;DHT22;4624;48.126;11.546;2023-01-16T06:45:25;0.90;97.10
9179;DHT22;4624;48.126;11.546;2023-01-16T06:47:51;0.90;97.10
9179;DHT22;4624;48.126;11.546;2023-01-16T06:50:18;0.90;97.20
9179;DHT22;4624;48.126;11.546;2023-01-16T06:52:45;0.90;97.20
9179;DHT22;4624;48.126;11.546;2023-01-16T06:55:13;0.90;97.20
9179;DHT22;4624;48.126;11.546;2023-01-16T06:57:40;0.90;97.30
9179;DHT22;4624;48.126;11.546;2023-01-16T07:00:08;0.80;97.40
9179;DHT22;4624;48.126;11.546;2023-01-16T07:02:35;0.80;97.50
9179;DHT22;4624;48.126;11.546;2023-01-16T07:05:06;0.80;97.60
9179;DHT22;4624;48.126;11.546;2023-01-16T07:07:33;0.80;97.70
9179;DHT22;4624;48.126;11.546;2023-01-16T07:10:00;0.80;97.80
9179;DHT22;4624;48.126;11.546;2023-01-16T07:12:28;0.90;97.80
9179;DHT22;4624;48.126;11.546;2023-01-16T07:14:55;0.90;97.80
9179;DHT22;4624;48.126;11.546;2023-01-16T07:17:39;1.00;97.90
9179;DHT22;4624;48.126;11.546;2023-01-16T07:20:23;1.00;97.90
9179;DHT22;4624;48.126;11.546;2023-01-16T07:23:14;1.10;98.00
9179;DHT22;4624;48.126;11.546;2023-01-16T07:25:42;1.10;98.00
9179;DHT22;4624;48.126;11.546;2023-01-16T07:28:10;1.10;98.10
9179;DHT22;4624;48.126;11.546;2023-01-16T07:30:37;1.10;98.10
9179;DHT22;4624;48.126;11.546;2023-01-16T07:33:04;1.10;98.20
9179;DHT22;4624;48.126;11.546;2023-01-16T07:35:31;1.10;98.10
9179;DHT22;4624;48.126;11.546;2023-01-16T07:37:58;1.10;98.20
9179;DHT22;4624;48.126;11.546;2023-01-16T07:40:24;1.10;98.20
9179;DHT22;4624;48.126;11.546;2023-01-16T07:42:51;1.10;98.30
9179;DHT22;4624;48.126;11.546;2023-01-16T07:45:20;1.10;98.30
9179;DHT22;4624;48.126;11.546;2023-01-16T07:47:46;1.10;98.30
9179;DHT22;4624;48.126;11.546;2023-01-16T07:50:13;1.20;98.70
9179;DHT22;4624;48.126;11.546;2023-01-16T07:52:42;1.20;98.40
9179;DHT22;4624;48.126;11.546;2023-01-16T07:55:09;1.20;98.40
9179;DHT22;4624;48.126;11.546;2023-01-16T07:57:36;1.20;98.40
9179;DHT22;4624;48.126;11.546;2023-01-16T08:00:03;1.30;98.40
9179;DHT22;4624;48.126;11.546;2023-01-16T08:02:32;1.40;98.50
9179;DHT22;4624;48.126;11.546;2023-01-16T08:04:59;1.60;98.60
9179;DHT22;4624;48.126;11.546;2023-01-16T08:07:26;1.60;98.50
9179;DHT22;4624;48.126;11.546;2023-01-16T08:09:52;1.60;98.40
9179;DHT22;4624;48.126;11.546;2023-01-16T08:12:19;1.60;98.30
9179;DHT22;4624;48.126;11.546;2023-01-16T08:14:46;1.60;98.30
9179;DHT22;4624;48.126;11.546;2023-01-16T08:17:13;1.60;98.30
9179;DHT22;4624;48.126;11.546;2023-01-16T08:19:41;1.70;98.30
9179;DHT22;4624;48.126;11.546;2023-01-16T08:22:08;1.80;98.30
9179;DHT22;4624;48.126;11.546;2023-01-16T08:24:35;2.30;98.60
9179;DHT22;4624;48.126;11.546;2023-01-16T08:27:02;3.20;99.30
9179;DHT22;4624;48.126;11.546;2023-01-16T08:29:29;4.20;99.40
9179;DHT22;4624;48.126;11.546;2023-01-16T08:31:56;5.20;99.20
9179;DHT22;4624;48.126;11.546;2023-01-16T08:34:23;6.00;98.00
9179;DHT22;4624;48.126;11.546;2023-01-16T08:36:51;6.60;96.70
9179;DHT22;4624;48.126;11.546;2023-01-16T08:39:17;7.20;96.10
9179;DHT22;4624;48.126;11.546;2023-01-16T08:41:44;7.70;94.20
9179;DHT22;4624;48.126;11.546;2023-01-16T08:44:29;7.90;93.10
9179;DHT22;4624;48.126;11.546;2023-01-16T08:47:14;8.60;92.90
9179;DHT22;4624;48.126;11.546;2023-01-16T08:50:01;9.10;91.50
9179;DHT22;4624;48.126;11.546;2023-01-16T08:52:47;9.30;90.00
9179;DHT22;4624;48.126;11.546;2023-01-16T08:55:14;9.40;87.30
9179;DHT22;4624;48.126;11.546;2023-01-16T08:57:41;9.60;86.90
9179;DHT22;4624;48.126;11.546;2023-01-16T09:00:09;9.90;85.80
9179;DHT22;4624;48.126;11.546;2023-01-16T09:02:35;10.20;83.30
9179;DHT22;4624;48.126;11.546;2023-01-16T09:05:04;10.20;80.60
9179;DHT22;4624;48.126;11.546;2023-01-16T09:07:31;10.50;79.80
9179;DHT22;4624;48.126;11.546;2023-01-16T09:09:59;10.80;77.60
9179;DHT22;4624;48.126;11.546;2023-01-16T09:12:26;11.00;76.60
9179;DHT22;4624;48.126;11.546;2023-01-16T09:15:11;11.50;75.90
9179;DHT22;4624;48.126;11.546;2023-01-16T09:17:37;12.10;73.70
9179;DHT22;4624;48.126;11.546;2023-01-16T09:20:05;12.70;71.80
9179;DHT22;4624;48.126;11.546;2023-01-16T09:22:32;13.20;69.40
9179;DHT22;4624;48.126;11.546;2023-01-16T09:25:00;13.70;67.70
9179;DHT22;4624;48.126;11.546;2023-01-16T09:27:27;14.00;64.70
9179;DHT22;4624;48.126;11.546;2023-01-16T09:29:54;13.90;63.00
9179;DHT22;4624;48.126;11.546;2023-01-16T09:32:21;13.80;62.00
9179;DHT22;4624;48.126;11.546;2023-01-16T09:34:48;13.60;60.70
9179;DHT22;4624;48.126;11.546;2023-01-16T09:37:14;13.40;60.10
9179;DHT22;4624;48.126;11.546;2023-01-16T09:39:41;12.00;59.50
9179;DHT22;4624;48.126;11.546;2023-01-16T09:42:24;10.80;61.10
9179;DHT22;4624;48.126;11.546;2023-01-16T09:45:14;9.80;64.30
9179;DHT22;4624;48.126;11.546;2023-01-16T09:47:45;8.80;66.50
9179;DHT22;4624;48.126;11.546;2023-01-16T09:50:17;8.10;68.60
9179;DHT22;4624;48.126;11.546;2023-01-16T09:52:48;8.10;70.40
9179;DHT22;4624;48.126;11.546;2023-01-16T09:55:37;8.40;70.80
9179;DHT22;4624;48.126;11.546;2023-01-16T09:58:24;8.50;71.20
9179;DHT22;4624;48.126;11.546;2023-01-16T10:01:04;9.00;71.40
9179;DHT22;4624;48.126;11.546;2023-01-16T10:03:31;9.20;71.10
9179;DHT22;4624;48.126;11.546;2023-01-16T10:06:04;9.00;70.90
9179;DHT22;4624;48.126;11.546;2023-01-16T10:08:37;8.50;71.40
9179;DHT22;4624;48.126;11.546;2023-01-16T10:11:12;8.50;72.30
9179;DHT22;4624;48.126;11.546;2023-01-16T10:13:52;9.20;72.40
9179;DHT22;4624;48.126;11.546;2023-01-16T10:16:29;10.70;69.50
9179;DHT22;4624;48.126;11.546;2023-01-16T10:19:08;11.50;66.50
9179;DHT22;4624;48.126;11.546;2023-01-16T10:21:53;11.50;64.30
9179;DHT22;4624;48.126;11.546;2023-01-16T10:24:28;10.30;64.40
9179;DHT22;4624;48.126;11.546;2023-01-16T10:27:10;10.50;65.60
9179;DHT22;4624;48.126;11.546;2023-01-16T10:29:44;10.90;65.60
9179;DHT22;4624;48.126;11.546;2023-01-16T10:32:19;11.30;64.60
9179;DHT22;4624;48.126;11.546;2023-01-16T10:34:54;11.30;63.90
9179;DHT22;4624;48.126;11.546;2023-01-16T10:37:25;12.50;62.40
9179;DHT22;4624;48.126;11.546;2023-01-16T10:39:53;12.80;60.80
9179;DHT22;4624;48.126;11.546;2023-01-16T10:42:24;13.20;60.10
9179;DHT22;4624;48.126;11.546;2023-01-16T10:45:15;13.10;58.90
9179;DHT22;4624;48.126;11.546;2023-01-16T10:47:59;12.90;58.80
9179;DHT22;4624;48.126;11.546;2023-01-16T10:50:45;13.00;58.10
9179;DHT22;4624;48.126;11.546;2023-01-16T10:53:12;13.00;57.80
9179;DHT22;4624;48.126;11.546;2023-01-16T10:55:42;13.00;57.80
9179;DHT22;4624;48.126;11.546;2023-01-16T10:58:27;12.40;56.80
9179;DHT22;4624;48.126;11.546;2023-01-16T11:00:59;10.70;57.70
9179;DHT22;4624;48.126;11.546;2023-01-16T11:03:33;9.80;60.80
9179;DHT22;4624;48.126;11.546;2023-01-16T11:06:12;10.20;60.60
9179;DHT22;4624;48.126;11.546;2023-01-16T11:08:41;10.30;60.30
9179;DHT22;4624;48.126;11.546;2023-01-16T11:11:11;10.50;60.60
9179;DHT22;4624;48.126;11.546;2023-01-16T11:14:02;11.00;60.30
9179;DHT22;4624;48.126;11.546;2023-01-16T11:16:48;11.30;59.40
9179;DHT22;4624;48.126;11.546;2023-01-16T11:19:41;11.20;58.40
9179;DHT22;4624;48.126;11.546;2023-01-16T11:22:22;11.60;58.50
9179;DHT22;4624;48.126;11.546;2023-01-16T11:24:53;11.40;58.20
9179;DHT22;4624;48.126;11.546;2023-01-16T11:27:23;11.30;58.00
9179;DHT22;4624;48.126;11.546;2023-01-16T11:29:52;10.80;58.20
9179;DHT22;4624;48.126;11.546;2023-01-16T11:32:21;10.10;58.90
9179;DHT22;4624;48.126;11.546;2023-01-16T11:34:53;9.90;61.00
9179;DHT22;4624;48.126;11.546;2023-01-16T11:37:20;9.90;61.40
9179;DHT22;4624;48.126;11.546;2023-01-16T11:39:51;9.90;61.60
9179;DHT22;4624;48.126;11.546;2023-01-16T11:42:18;9.80;62.20
9179;DHT22;4624;48.126;11.546;2023-01-16T11:45:13;9.80;62.00
9179;DHT22;4624;48.126;11.546;2023-01-16T11:48:01;9.80;62.10
9179;DHT22;4624;48.126;11.546;2023-01-16T11:50:49;9.90;62.20
9179;DHT22;4624;48.126;11.546;2023-01-16T11:53:16;10.40;60.60
9179;DHT22;4624;48.126;11.546;2023-01-16T11:55:54;10.70;60.00
9179;DHT22;4624;48.126;11.546;2023-01-16T11:58:33;10.60;59.70
9179;DHT22;4624;48.126;11.546;2023-01-16T12:01:09;10.10;60.10
9179;DHT22;4624;48.126;11.546;2023-01-16T12:03:55;9.90;62.20
9179;DHT22;4624;48.126;11.546;2023-01-16T12:06:39;10.10;61.40
9179;DHT22;4624;48.126;11.546;2023-01-16T12:09:36;10.50;60.50
9179;DHT22;4624;48.126;11.546;2023-01-16T12:12:16;10.20;60.50
9179;DHT22;4624;48.126;11.546;2023-01-16T12:15:03;9.90;62.00
9179;DHT22;4624;48.126;11.546;2023-01-16T12:17:47;9.80;62.40
9179;DHT22;4624;48.126;11.546;2023-01-16T12:20:26;9.70;62.70
9179;DHT22;4624;48.126;11.546;2023-01-16T12:23:05;9.50;63.30
9179;DHT22;4624;48.126;11.546;2023-01-16T12:25:41;9.20;63.60
9179;DHT22;4624;48.126;11.546;2023-01-16T12:28:18;9.20;64.20
9179;DHT22;4624;48.126;11.546;2023-01-16T12:31:00;9.50;64.30
9179;DHT22;4624;48.126;11.546;2023-01-16T12:33:45;9.80;64.00
9179;DHT22;4624;48.126;11.546;2023-01-16T12:36:20;9.70;64.10
9179;DHT22;4624;48.126;11.546;2023-01-16T12:38:54;9.30;64.40
9179;DHT22;4624;48.126;11.546;2023-01-16T12:41:31;8.70;65.40
9179;DHT22;4624;48.126;11.546;2023-01-16T12:44:30;8.30;66.40
9179;DHT22;4624;48.126;11.546;2023-01-16T12:47:19;7.90;67.50
9179;DHT22;4624;48.126;11.546;2023-01-16T12:49:56;7.70;68.30
9179;DHT22;4624;48.126;11.546;2023-01-16T12:52:39;7.50;69.10
9179;DHT22;4624;48.126;11.546;2023-01-16T12:55:20;7.50;69.90
9179;DHT22;4624;48.126;11.546;2023-01-16T12:58:09;7.30;70.50
9179;DHT22;4624;48.126;11.546;2023-01-16T13:00:40;7.20;71.00
9179;DHT22;4624;48.126;11.546;2023-01-16T13:03:16;7.10;71.50
9179;DHT22;4624;48.126;11.546;2023-01-16T13:05:46;7.10;71.90
9179;DHT22;4624;48.126;11.546;2023-01-16T13:08:20;7.10;72.30
9179;DHT22;4624;48.126;11.546;2023-01-16T13:10:52;7.10;72.70
9179;DHT22;4624;48.126;11.546;2023-01-16T13:13:42;7.00;73.00
9179;DHT22;4624;48.126;11.546;2023-01-16T13:16:15;6.90;73.40
9179;DHT22;4624;48.126;11.546;2023-01-16T13:18:46;6.90;73.60
9179;DHT22;4624;48.126;11.546;2023-01-16T13:21:17;6.80;74.20
9179;DHT22;4624;48.126;11.546;2023-01-16T13:23:50;6.80;74.70
9179;DHT22;4624;48.126;11.546;2023-01-16T13:26:18;6.70;75.10
9179;DHT22;4624;48.126;11.546;2023-01-16T13:28:50;6.60;75.90
9179;DHT22;4624;48.126;11.546;2023-01-16T13:31:24;6.60;76.80
9179;DHT22;4624;48.126;11.546;2023-01-16T13:33:55;6.60;76.30
9179;DHT22;4624;48.126;11.546;2023-01-16T13:36:49;6.60;76.70
9179;DHT22;4624;48.126;11.546;2023-01-16T13:42:24;6.70;77.10
9179;DHT22;4624;48.126;11.546;2023-01-16T13:44:55;6.70;77.20
9179;DHT22;4624;48.126;11.546;2023-01-16T13:47:41;6.80;77.40
9179;DHT22;4624;48.126;11.546;2023-01-16T13:50:17;6.80;77.60
9179;DHT22;4624;48.126;11.546;2023-01-16T13:52:45;6.90;77.60
9179;DHT22;4624;48.126;11.546;2023-01-16T13:55:28;6.80;77.60
9179;DHT22;4624;48.126;11.546;2023-01-16T13:57:56;6.90;77.90
9179;DHT22;4624;48.126;11.546;2023-01-16T14:00:32;6.90;77.90
9179;DHT22;4624;48.126;11.546;2023-01-16T14:03:09;6.90;77.80
9179;DHT22;4624;48.126;11.546;2023-01-16T14:05:45;6.90;77.70
9179;DHT22;4624;48.126;11.546;2023-01-16T14:08:50;6.90;77.30
9179;DHT22;4624;48.126;11.546;2023-01-16T14:11:40;6.80;77.20
9179;DHT22;4624;48.126;11.546;2023-01-16T14:14:32;6.80;77.10
9179;DHT22;4624;48.126;11.546;2023-01-16T14:17:18;6.70;77.00
9179;DHT22;4624;48.126;11.546;2023-01-16T14:19:55;6.70;77.00
9179;DHT22;4624;48.126;11.546;2023-01-16T14:22:23;6.60;76.70
9179;DHT22;4624;48.126;11.546;2023-01-16T14:25:20;6.60;76.50
9179;DHT22;4624;48.126;11.546;2023-01-16T14:27:51;6.50;76.00
9179;DHT22;4624;48.126;11.546;2023-01-16T14:30:22;6.50;75.70
9179;DHT22;4624;48.126;11.546;2023-01-16T14:32:53;6.50;75.60
9179;DHT22;4624;48.126;11.546;2023-01-16T14:35:22;6.50;75.10
9179;DHT22;4624;48.126;11.546;2023-01-16T14:37:55;6.50;73.70
9179;DHT22;4624;48.126;11.546;2023-01-16T14:40:25;6.40;72.70
9179;DHT22;4624;48.126;11.546;2023-01-16T14:43:16;6.40;71.90
9179;DHT22;4624;48.126;11.546;2023-01-16T14:49:40;6.30;70.10
9179;DHT22;4624;48.126;11.546;2023-01-16T14:52:47;6.20;69.10
9179;DHT22;4624;48.126;11.546;2023-01-16T14:55:42;6.20;68.80
9179;DHT22;4624;48.126;11.546;2023-01-16T14:58:14;6.10;68.80
9179;DHT22;4624;48.126;11.546;2023-01-16T15:00:42;6.10;68.70
9179;DHT22;4624;48.126;11.546;2023-01-16T15:03:12;6.10;68.70
9179;DHT22;4624;48.126;11.546;2023-01-16T15:05:45;6.10;67.90
9179;DHT22;4624;48.126;11.546;2023-01-16T15:08:21;6.00;67.00
9179;DHT22;4624;48.126;11.546;2023-01-16T15:10:51;6.00;66.90
9179;DHT22;4624;48.126;11.546;2023-01-16T15:13:23;5.90;66.80
9179;DHT22;4624;48.126;11.546;2023-01-16T15:15:53;5.90;67.10
9179;DHT22;4624;48.126;11.546;2023-01-16T15:18:22;6.00;67.20
9179;DHT22;4624;48.126;11.546;2023-01-16T15:21:12;5.90;67.20
9179;DHT22;4624;48.126;11.546;2023-01-16T15:23:59;5.80;67.10
9179;DHT22;4624;48.126;11.546;2023-01-16T15:26:45;5.70;67.20
9179;DHT22;4624;48.126;11.546;2023-01-16T15:29:39;5.70;67.70
9179;DHT22;4624;48.126;11.546;2023-01-16T15:32:11;5.70;68.10
9179;DHT22;4624;48.126;11.546;2023-01-16T15:34:43;5.70;68.20
9179;DHT22;4624;48.126;11.546;2023-01-16T15:37:19;5.70;68.40
9179;DHT22;4624;48.126;11.546;2023-01-16T15:39:49;5.70;68.50
9179;DHT22;4624;48.126;11.546;2023-01-16T15:42:19;5.60;68.40
9179;DHT22;4624;48.126;11.546;2023-01-16T15:45:15;5.60;68.50
9179;DHT22;4624;48.126;11.546;2023-01-16T15:48:14;5.60;68.60
9179;DHT22;4624;48.126;11.546;2023-01-16T15:50:52;5.50;68.60
9179;DHT22;4624;48.126;11.546;2023-01-16T15:53:20;5.50;68.70
9179;DHT22;4624;48.126;11.546;2023-01-16T15:55:50;5.50;68.70
9179;DHT22;4624;48.126;11.546;2023-01-16T15:58:19;5.40;68.60
9179;DHT22;4624;48.126;11.546;2023-01-16T16:00:55;5.40;68.70
9179;DHT22;4624;48.126;11.546;2023-01-16T16:03:23;5.40;68.90
9179;DHT22;4624;48.126;11.546;2023-01-16T16:05:57;5.40;69.10
9179;DHT22;4624;48.126;11.546;2023-01-16T16:08:27;5.40;69.20
9179;DHT22;4624;48.126;11.546;2023-01-16T16:10:57;5.30;69.30
9179;DHT22;4624;48.126;11.546;2023-01-16T16:13:43;5.30;69.50
9179;DHT22;4624;48.126;11.546;2023-01-16T16:16:19;5.30;69.50
9179;DHT22;4624;48.126;11.546;2023-01-16T16:19:05;5.20;69.60
9179;DHT22;4624;48.126;11.546;2023-01-16T16:21:35;5.30;69.60
9179;DHT22;4624;48.126;11.546;2023-01-16T16:24:05;5.20;69.70
9179;DHT22;4624;48.126;11.546;2023-01-16T16:26:38;5.20;70.00
9179;DHT22;4624;48.126;11.546;2023-01-16T16:29:14;5.20;70.00
9179;DHT22;4624;48.126;11.546;2023-01-16T16:31:44;5.10;69.90
9179;DHT22;4624;48.126;11.546;2023-01-16T16:34:14;5.10;70.30
9179;DHT22;4624;48.126;11.546;2023-01-16T16:36:46;5.10;70.20
9179;DHT22;4624;48.126;11.546;2023-01-16T16:39:29;5.10;70.30
9179;DHT22;4624;48.126;11.546;2023-01-16T16:41:56;5.00;70.60
9179;DHT22;4624;48.126;11.546;2023-01-16T16:44:43;5.00;71.10
9179;DHT22;4624;48.126;11.546;2023-01-16T16:47:24;5.00;71.30
9179;DHT22;4624;48.126;11.546;2023-01-16T16:49:51;5.00;71.70